Map

Track Data

SID SEASON NUMBER BASIN SUBBASIN NAME ISO_TIME NATURE LAT LON WMO_WIND WMO_PRES WMO_AGENCY TRACK_TYPE DIST2LAND LANDFALL IFLAG USA_AGENCY USA_ATCF_ID USA_LAT USA_LON USA_RECORD USA_STATUS USA_WIND USA_PRES USA_SSHS USA_R34_NE USA_R34_SE USA_R34_SW USA_R34_NW USA_R50_NE USA_R50_SE USA_R50_SW USA_R50_NW USA_R64_NE USA_R64_SE USA_R64_SW USA_R64_NW USA_POCI USA_ROCI USA_RMW USA_EYE TOKYO_LAT TOKYO_LON TOKYO_GRADE TOKYO_WIND TOKYO_PRES TOKYO_R50_DIR TOKYO_R50_LONG TOKYO_R50_SHORT TOKYO_R30_DIR TOKYO_R30_LONG TOKYO_R30_SHORT TOKYO_LAND CMA_LAT CMA_LON CMA_CAT CMA_WIND CMA_PRES HKO_LAT HKO_LON HKO_CAT HKO_WIND HKO_PRES NEWDELHI_LAT NEWDELHI_LON NEWDELHI_GRADE NEWDELHI_WIND NEWDELHI_PRES NEWDELHI_CI NEWDELHI_DP NEWDELHI_POCI REUNION_LAT REUNION_LON REUNION_TYPE REUNION_WIND REUNION_PRES REUNION_TNUM REUNION_CI REUNION_RMW REUNION_R34_NE REUNION_R34_SE REUNION_R34_SW REUNION_R34_NW REUNION_R50_NE REUNION_R50_SE REUNION_R50_SW REUNION_R50_NW REUNION_R64_NE REUNION_R64_SE REUNION_R64_SW REUNION_R64_NW BOM_LAT BOM_LON BOM_TYPE BOM_WIND BOM_PRES BOM_TNUM BOM_CI BOM_RMW BOM_R34_NE BOM_R34_SE BOM_R34_SW BOM_R34_NW BOM_R50_NE BOM_R50_SE BOM_R50_SW BOM_R50_NW BOM_R64_NE BOM_R64_SE BOM_R64_SW BOM_R64_NW BOM_ROCI BOM_POCI BOM_EYE BOM_POS_METHOD BOM_PRES_METHOD NADI_LAT NADI_LON NADI_CAT NADI_WIND NADI_PRES WELLINGTON_LAT WELLINGTON_LON WELLINGTON_WIND WELLINGTON_PRES DS824_LAT DS824_LON DS824_STAGE DS824_WIND DS824_PRES TD9636_LAT TD9636_LON TD9636_STAGE TD9636_WIND TD9636_PRES TD9635_LAT TD9635_LON TD9635_WIND TD9635_PRES TD9635_ROCI NEUMANN_LAT NEUMANN_LON NEUMANN_CLASS NEUMANN_WIND NEUMANN_PRES MLC_LAT MLC_LON MLC_CLASS MLC_WIND MLC_PRES USA_GUST BOM_GUST BOM_GUST_PER REUNION_GUST REUNION_GUST_PER USA_SEAHGT USA_SEARAD_NE USA_SEARAD_SE USA_SEARAD_SW USA_SEARAD_NW STORM_SPEED STORM_DIR
2000214S06080 2001 54 SI MM NOT_NAMED 2000-08-01 00:00:00 TS -6.10000 79.7000 main 1348 1348 O___________O_ jtwc_sh SH012001 -6.10000 79.7000 TD 25 -1 -6.10000 79.7000 TC 25 8 272
2000214S06080 2001 54 SI MM NOT_NAMED 2000-08-01 03:00:00 TS -6.08756 79.2950 main 1352 1352 P___________P_ SH012001 -6.08756 79.2950 TD 27 -1 -6.08756 79.2950 TC 27 8 270
2000214S06080 2001 54 SI MM NOT_NAMED 2000-08-01 06:00:00 TS -6.10000 78.9000 main 1357 1357 O___________O_ jtwc_sh SH012001 -6.10000 78.9000 TD 30 -1 -6.10000 78.9000 TC 30 8 265
2000214S06080 2001 54 SI MM NOT_NAMED 2000-08-01 09:00:00 TS -6.14999 78.5275 main 1364 1364 P___________P_ SH012001 -6.14999 78.5275 TD 30 -1 -6.14999 78.5275 TC 30 7 262
2000214S06080 2001 54 SI MM NOT_NAMED 2000-08-01 12:00:00 TS -6.20000 78.2000 main 1381 1381 O___________O_ jtwc_sh SH012001 -6.20000 78.2000 TD 30 -1 -6.20000 78.2000 TC 30 6 264
2000214S06080 2001 54 SI MM NOT_NAMED 2000-08-01 15:00:00 TS -6.20746 77.9350 main 1388 1388 P___________P_ SH012001 -6.20746 77.9350 TD 32 -1 -6.20746 77.9350 TC 32 5 270
2000214S06080 2001 54 SI MM NOT_NAMED 2000-08-01 18:00:00 TS -6.20000 77.7000 main 1393 1393 O___________O_ jtwc_sh SH012001 -6.20000 77.7000 TS 35 0 -6.20000 77.7000 TC 35 5 270
2000214S06080 2001 54 SI MM NOT_NAMED 2000-08-01 21:00:00 TS -6.20751 77.4350 main 1401 1401 P___________P_ SH012001 -6.20751 77.4350 TS 35 0 -6.20751 77.4350 TC 35 5 270
2000214S06080 2001 54 SI MM NOT_NAMED 2000-08-02 00:00:00 TS -6.20000 77.2000 main 1407 1399 O___________O_ jtwc_sh SH012001 -6.20000 77.2000 TS 35 0 -6.20000 77.2000 TC 35 4 279
2000214S06080 2001 54 SI MM NOT_NAMED 2000-08-02 03:00:00 TS -6.14248 77.0350 main 1402 1402 P___________P_ SH012001 -6.14248 77.0350 TS 35 0 -6.14248 77.0350 TC 35 3 289
2000214S06080 2001 54 SI MM NOT_NAMED 2000-08-02 06:00:00 TS -6.10000 76.9000 main 1406 1406 O___________O_ jtwc_sh SH012001 -6.10000 76.9000 TS 35 0 -6.10000 76.9000 TC 35 3 275
2000214S06080 2001 54 SI MM NOT_NAMED 2000-08-02 09:00:00 TS -6.11998 76.7650 main 1409 1409 P___________P_ SH012001 -6.11998 76.7650 TS 35 0 -6.11998 76.7650 TC 35 3 251
2000214S06080 2001 54 SI MM NOT_NAMED 2000-08-02 12:00:00 TS -6.20000 76.6000 main 1426 1426 O___________O_ jtwc_sh SH012001 -6.20000 76.6000 TS 35 0 -6.20000 76.6000 TC 35 4 243
2000214S06080 2001 54 SI MM NOT_NAMED 2000-08-02 15:00:00 TS -6.31998 76.3800 main 1444 1444 P___________P_ SH012001 -6.31998 76.3800 TS 35 0 -6.31998 76.3800 TC 35 6 239
2000214S06080 2001 54 SI MM NOT_NAMED 2000-08-02 18:00:00 TS -6.50000 76.1000 main 1476 1476 O___________O_ jtwc_sh SH012001 -6.50000 76.1000 TS 35 0 -6.50000 76.1000 TC 35 7 236
2000214S06080 2001 54 SI MM NOT_NAMED 2000-08-02 21:00:00 TS -6.72749 75.7725 main 1508 1508 P___________P_ SH012001 -6.72749 75.7725 TS 35 0 -6.72749 75.7725 TC 35 9 234
2000214S06080 2001 54 SI MM NOT_NAMED 2000-08-03 00:00:00 TS -7.00000 75.4000 main 1555 1555 O___________O_ jtwc_sh SH012001 -7.00000 75.4000 TS 35 0 -7.00000 75.4000 TC 35 10 234
2000214S06080 2001 54 SI MM NOT_NAMED 2000-08-03 03:00:00 TS -7.29250 75.0000 main 1602 1602 P___________P_ SH012001 -7.29250 75.0000 TS 35 0 -7.29250 75.0000 TC 35 10 233
2000214S06080 2001 54 SI MM NOT_NAMED 2000-08-03 06:00:00 TS -7.60000 74.6000 main 1650 1650 O___________O_ jtwc_sh SH012001 -7.60000 74.6000 TS 35 0 -7.60000 74.6000 TC 35 10 231
2000214S06080 2001 54 SI MM NOT_NAMED 2000-08-03 09:00:00 TS -7.90253 74.2376 main 1698 1698 P___________P_ SH012001 -7.90253 74.2376 TS 32 -1 -7.90253 74.2376 TC 32 9 229
2000214S06080 2001 54 SI MM NOT_NAMED 2000-08-03 12:00:00 TS -8.20000 73.9000 main 1742 O___________O_ jtwc_sh SH012001 -8.20000 73.9000 TD 30 -1 -8.20000 73.9000 TC 30 9 228

About IBTrACS Database

This database is a web-friendly format of International Best Track Archive for Climate Stewardship (IBTrACS), a global best track data archive curated by NOAA dating back to 1842.

Updated: 2021-10-21